NCAR-RAP Real-Time Weather Data

Output produced by METARs form (17 September 2019  16:55 UTC)
found at http://weather.rap.ucar.edu/surface/
 
KBUF 171554Z 07006KT 10SM FEW250 21/08 A3024 RMK AO2 SLP237 T02110083
KBUF 171454Z VRB03KT 10SM FEW250 20/10 A3024 RMK AO2 SLP238 T02000100 50008
KBUF 171354Z 00000KT 10SM FEW260 FEW350 18/09 A3024 RMK AO2 SLP239 T01830094
KBUF 171254Z COR 00000KT 10SM FEW260 FEW350 15/09 A3023 RMK AO2 SLP238 T01500089
KBUF 171154Z 11004KT 10SM SCT250 13/08 A3021 RMK AO2 SLP230 70001 T01280083 10156 20106 53016
KBUF 171054Z 04003KT 10SM FEW065 FEW250 11/08 A3019 RMK AO2 SLP225 T01110083
KBUF 170954Z 03003KT 10SM FEW065 12/08 A3017 RMK AO2 SLP217 T01170083
KBUF 170854Z 36004KT 10SM CLR 11/08 A3016 RMK AO2 SLP214 T01110083 53002
KBUF 170754Z 06004KT 10SM CLR 13/08 A3016 RMK AO2 SLP211 T01330083
KBUF 170654Z 08003KT 10SM FEW049 BKN065 14/08 A3016 RMK AO2 SLP212 T01390083
KBUF 170554Z 10005KT 10SM FEW048 SCT065 16/08 A3016 RMK AO2 SLP210 60001 T01560083 10183 20156 53008
KBUF 170454Z 09005KT 10SM FEW048 BKN080 16/09 A3014 RMK AO2 SLP205 T01560089 402330156
KBUF 170354Z 09006KT 10SM FEW040 SCT060 BKN080 16/08 A3013 RMK AO2 SLP202 T01610083
KBUF 170254Z 07008KT 10SM BKN041 BKN060 17/09 A3013 RMK AO2 SLP203 60001 T01670094 51010
KBUF 170054Z 03006KT 10SM -RA OVC055 17/12 A3012 RMK AO2 RAB49 SLP198 P0000 T01720117
KBUF 162354Z 04008KT 10SM OVC060 18/13 A3010 RMK AO2 SLP193 T01830128 10233 20183 53012
KBUF 162254Z 05008KT 10SM FEW040 BKN065 OVC080 19/13 A3009 RMK AO2 SLP188 T01940133
KBUF 162154Z 02011KT 10SM FEW042 BKN070 21/15 A3007 RMK AO2 SLP182 T02110150
KBUF 162054Z 06007KT 10SM FEW019 FEW040 BKN065 BKN130 22/15 A3007 RMK AO2 SLP180 T02220150 57004
KBUF 161954Z 03008KT 10SM FEW023 FEW043 SCT075 23/16 A3007 RMK AO2 SLP181 T02280161